createdAt,value
2023-03-12T00:30:14.393Z,22.38
2023-03-12T00:31:14.402Z,22.38
2023-03-12T00:32:14.414Z,22.39
2023-03-12T00:33:14.312Z,22.37
2023-03-12T00:34:14.271Z,22.40
2023-03-12T00:35:14.247Z,22.38
2023-03-12T00:36:14.216Z,22.37
2023-03-12T00:37:14.193Z,22.38
2023-03-12T00:38:14.174Z,22.37
2023-03-12T00:39:14.123Z,22.38
2023-03-12T00:40:14.106Z,22.38
2023-03-12T00:41:14.075Z,22.38
2023-03-12T00:42:14.042Z,22.39
2023-03-12T00:43:14.023Z,22.36
2023-03-12T00:44:14.000Z,22.37
2023-03-12T00:45:13.969Z,22.41
2023-03-12T00:46:13.977Z,22.39
2023-03-12T00:47:13.920Z,22.40
2023-03-12T00:48:13.873Z,22.40
2023-03-12T00:49:13.864Z,22.38
2023-03-12T00:50:13.804Z,22.40
2023-03-12T00:51:13.793Z,22.38
2023-03-12T00:52:13.765Z,22.38
2023-03-12T00:53:13.752Z,22.41
2023-03-12T00:54:13.697Z,22.41
2023-03-12T00:55:13.665Z,22.38
2023-03-12T00:56:13.668Z,22.38
2023-03-12T00:57:13.623Z,22.39
2023-03-12T00:58:13.586Z,22.40
2023-03-12T00:59:13.544Z,22.39
2023-03-12T01:00:13.528Z,22.39
2023-03-12T01:01:13.524Z,22.41
2023-03-12T01:02:13.461Z,22.38
2023-03-12T01:03:13.429Z,22.37
2023-03-12T01:04:13.538Z,22.37
2023-03-12T01:05:13.368Z,22.38
2023-03-12T01:06:13.332Z,22.38
2023-03-12T01:07:13.309Z,22.40
2023-03-12T01:08:13.265Z,22.40
2023-03-12T01:09:13.234Z,22.40
2023-03-12T01:10:13.204Z,22.42
2023-03-12T01:11:13.177Z,22.38
2023-03-12T01:12:13.139Z,22.39
2023-03-12T01:13:13.138Z,22.37
2023-03-12T01:14:13.062Z,22.41
2023-03-12T01:15:13.024Z,22.39
2023-03-12T01:16:13.024Z,22.38
2023-03-12T01:17:12.952Z,22.40
2023-03-12T01:18:12.934Z,22.40
2023-03-12T01:19:12.898Z,22.40
2023-03-12T01:20:12.862Z,22.40
2023-03-12T01:21:12.829Z,22.37
2023-03-12T01:22:12.792Z,22.38
2023-03-12T01:23:12.761Z,22.39
2023-03-12T01:24:12.732Z,22.38
2023-03-12T01:25:12.702Z,22.40
2023-03-12T01:26:12.655Z,22.39
2023-03-12T01:27:12.627Z,22.40
2023-03-12T01:28:12.638Z,22.40
2023-03-12T01:29:12.566Z,22.39
2023-03-12T01:30:12.538Z,22.40
2023-03-12T01:31:12.522Z,22.39
2023-03-12T01:32:12.543Z,22.40
2023-03-12T01:33:12.478Z,22.38
2023-03-12T01:34:12.431Z,22.40
2023-03-12T01:35:12.416Z,22.39
2023-03-12T03:29:08.974Z,22.42
2023-03-12T03:30:08.926Z,22.42
2023-03-12T06:50:02.148Z,22.38
2023-03-12T06:51:02.139Z,22.39
2023-03-12T06:52:02.029Z,22.37
2023-03-12T06:53:02.002Z,22.37
2023-03-12T06:54:01.982Z,22.36
2023-03-12T06:55:01.949Z,22.35
2023-03-12T06:56:01.927Z,22.35
2023-03-12T06:57:01.903Z,22.33
2023-03-12T06:58:01.874Z,22.36
2023-03-12T06:59:01.839Z,22.32
2023-03-12T07:00:01.843Z,22.33
2023-03-12T07:01:01.795Z,22.33
2023-03-12T07:02:01.802Z,22.33
2023-03-12T07:03:01.724Z,22.32
2023-03-12T08:32:58.275Z,21.55
2023-03-12T11:06:52.251Z,22.40
2023-03-12T11:07:52.206Z,22.41
2023-03-12T11:08:53.052Z,22.41
2023-03-12T11:09:52.129Z,22.41
2023-03-12T11:10:52.090Z,22.42
2023-03-12T11:11:52.067Z,22.42
2023-03-12T11:12:52.025Z,22.43
2023-03-12T11:13:52.009Z,22.42
2023-03-12T11:14:51.961Z,22.44
2023-03-12T11:15:51.940Z,22.44
2023-03-12T11:16:51.907Z,22.45
2023-03-12T11:17:51.849Z,22.44
2023-03-12T11:18:51.802Z,22.45
2023-03-12T11:19:51.768Z,22.46
2023-03-12T11:20:51.756Z,22.49
2023-03-12T11:21:51.716Z,22.48
2023-03-12T15:21:42.668Z,23.06
2023-03-12T15:22:42.626Z,23.06
2023-03-12T15:23:42.585Z,23.06
2023-03-12T15:24:42.549Z,23.08
2023-03-12T15:25:42.507Z,23.09
2023-03-12T15:26:42.467Z,23.08
2023-03-12T15:27:42.462Z,23.08
2023-03-12T15:28:42.401Z,23.07
2023-03-12T15:29:42.354Z,23.07
2023-03-12T15:30:42.391Z,23.07
2023-03-12T15:31:42.356Z,23.06
2023-03-12T15:32:42.289Z,23.08
2023-03-12T15:33:42.222Z,23.08
2023-03-12T15:34:42.179Z,23.11
2023-03-12T15:35:42.307Z,23.09
2023-03-12T15:36:42.112Z,23.10
2023-03-12T15:37:42.090Z,23.13
2023-03-12T15:38:42.100Z,23.10
2023-03-12T15:39:42.156Z,23.11
2023-03-12T15:40:41.988Z,23.11
2023-03-12T15:41:41.959Z,23.13
2023-03-12T15:42:41.921Z,23.13
2023-03-12T15:43:41.883Z,23.13
2023-03-12T15:44:41.880Z,23.11
2023-03-12T15:45:41.882Z,23.11
2023-03-12T15:46:41.919Z,23.13
2023-03-12T15:47:41.734Z,23.13
2023-03-12T15:48:41.695Z,23.13
2023-03-12T19:07:37.125Z,23.45
2023-03-12T19:13:34.726Z,23.44
2023-03-12T19:33:34.137Z,23.42
2023-03-12T20:05:33.169Z,23.36
2023-03-12T20:06:33.137Z,23.35
2023-03-12T20:07:33.111Z,23.37
2023-03-12T20:08:33.085Z,23.36
2023-03-12T20:09:33.075Z,23.33
2023-03-12T20:10:33.028Z,23.35
2023-03-12T20:11:33.002Z,23.35
2023-03-12T20:12:32.975Z,23.35
2023-03-12T20:13:32.960Z,23.37
2023-03-12T20:14:32.943Z,23.34
2023-03-12T20:15:32.896Z,23.36
2023-03-12T20:16:32.940Z,23.36
2023-03-12T20:17:32.865Z,23.34
2023-03-12T20:18:32.821Z,23.35
2023-03-12T20:19:32.798Z,23.35
2023-03-12T20:20:32.790Z,23.37
2023-03-12T20:21:32.729Z,23.34
2023-03-12T20:22:32.702Z,23.34
2023-03-12T20:23:32.664Z,23.34
2023-03-12T20:24:32.683Z,23.32
2023-03-12T20:25:32.615Z,23.34
2023-03-12T20:26:32.590Z,23.33
2023-03-12T20:27:32.550Z,23.33
2023-03-12T20:28:32.535Z,23.33
2023-03-12T20:29:32.541Z,23.33
2023-03-12T20:30:32.475Z,23.35
2023-03-12T20:31:32.536Z,23.33
2023-03-12T20:32:32.460Z,23.34
2023-03-12T20:33:32.385Z,23.34
2023-03-12T20:34:32.346Z,23.35
2023-03-12T20:35:32.341Z,23.30
2023-03-12T20:36:32.303Z,23.32
2023-03-12T20:37:32.256Z,23.35
2023-03-12T20:38:32.234Z,23.33
2023-03-12T20:39:32.216Z,23.32
2023-03-12T20:40:32.185Z,23.32
2023-03-12T20:41:32.161Z,23.32
2023-03-12T20:42:32.125Z,23.32
2023-03-12T20:43:32.092Z,23.32
2023-03-12T20:44:32.098Z,23.34
2023-03-12T20:45:32.055Z,23.32
2023-03-12T20:46:32.020Z,23.32
2023-03-12T20:47:31.991Z,23.31
2023-03-12T20:48:31.999Z,23.32
2023-03-12T20:49:31.967Z,23.30
2023-03-12T20:50:31.935Z,23.30
2023-03-12T20:51:31.898Z,23.31
2023-03-12T20:52:31.872Z,23.30
2023-03-12T20:53:31.840Z,23.31
2023-03-12T20:54:31.824Z,23.30
2023-03-12T20:55:31.801Z,23.31
2023-03-12T20:56:31.774Z,23.30
2023-03-12T20:57:31.741Z,23.30
2023-03-12T20:58:31.715Z,23.31
2023-03-12T21:09:31.382Z,23.30
2023-03-12T21:10:31.834Z,23.28
2023-03-12T21:13:31.276Z,23.27
2023-03-12T21:14:31.288Z,23.28
2023-03-12T21:15:31.206Z,23.29
2023-03-12T21:16:31.216Z,23.30
2023-03-12T21:17:31.164Z,23.29
2023-03-12T21:18:31.117Z,23.28
2023-03-12T21:19:31.097Z,23.27
2023-03-12T21:20:31.023Z,23.27
2023-03-12T21:21:30.992Z,23.29
2023-03-12T21:22:30.959Z,23.29
2023-03-12T21:23:30.983Z,23.26
2023-03-12T21:24:30.890Z,23.28
2023-03-12T21:25:30.844Z,23.28
2023-03-12T21:26:30.821Z,23.25
2023-03-12T21:27:38.404Z,23.27
2023-03-12T21:28:31.757Z,23.28
2023-03-12T21:29:30.721Z,23.27
2023-03-12T21:30:30.715Z,23.26
2023-03-12T21:31:30.664Z,23.26
2023-03-12T21:32:30.688Z,23.25
2023-03-12T21:33:30.600Z,23.24
2023-03-12T21:34:30.613Z,23.26
2023-03-12T21:35:30.641Z,23.26
2023-03-12T21:36:30.610Z,23.24
2023-03-12T21:37:30.513Z,23.24
2023-03-12T21:38:30.477Z,23.25
2023-03-12T21:39:30.440Z,23.25
2023-03-12T21:40:30.412Z,23.25
2023-03-12T21:41:30.391Z,23.23
2023-03-12T21:42:30.358Z,23.23
2023-03-12T21:43:30.318Z,23.24
2023-03-12T21:44:30.296Z,23.22
2023-03-12T21:45:30.290Z,23.22
2023-03-12T21:46:30.273Z,23.24
2023-03-12T21:47:30.235Z,23.24
2023-03-12T21:48:30.186Z,23.22
2023-03-12T21:49:30.163Z,23.21
2023-03-12T21:50:30.126Z,23.22
2023-03-12T21:51:30.105Z,23.23
2023-03-12T21:52:30.078Z,23.23
2023-03-12T21:53:30.059Z,23.22
2023-03-12T21:54:30.021Z,23.23
2023-03-12T21:55:29.992Z,23.24
2023-03-12T21:56:29.988Z,23.22
2023-03-12T21:57:29.961Z,23.23
2023-03-12T21:58:29.923Z,23.21
2023-03-12T21:59:29.888Z,23.22
2023-03-12T22:00:29.855Z,23.23
2023-03-12T22:01:29.877Z,23.21
2023-03-12T22:02:29.803Z,23.21
2023-03-12T22:03:29.774Z,23.23
2023-03-12T22:04:29.889Z,23.20
2023-03-12T22:05:29.724Z,23.21
2023-03-12T22:06:29.765Z,23.19
2023-03-12T22:07:29.669Z,23.20
2023-03-12T22:08:29.646Z,23.19
2023-03-12T22:09:29.624Z,23.18
2023-03-12T22:10:29.608Z,23.21
2023-03-12T22:11:29.565Z,23.20
2023-03-12T22:12:29.544Z,23.19
2023-03-12T22:13:29.511Z,23.21
2023-03-12T22:14:29.501Z,23.22
2023-03-12T22:15:29.489Z,23.18
2023-03-12T22:16:29.579Z,23.20
2023-03-12T22:17:29.417Z,23.22
2023-03-12T22:18:29.393Z,23.20
2023-03-12T22:19:29.351Z,23.21
2023-03-12T22:20:29.325Z,23.20
2023-03-12T22:21:29.290Z,23.20
2023-03-12T22:22:29.279Z,23.19
2023-03-12T22:23:29.246Z,23.21
2023-03-12T22:24:29.227Z,23.21
2023-03-12T22:25:29.189Z,23.19
2023-03-12T22:26:29.155Z,23.20
2023-03-12T22:27:29.145Z,23.19
2023-03-12T22:28:29.132Z,23.20
2023-03-12T22:29:29.082Z,23.19
2023-03-12T22:30:29.104Z,23.17
2023-03-12T22:31:29.057Z,23.18
2023-03-12T22:32:29.103Z,23.16
2023-03-12T22:33:28.995Z,23.18
2023-03-12T22:34:28.950Z,23.17
2023-03-12T22:35:28.918Z,23.18
2023-03-12T22:36:28.897Z,23.17
2023-03-12T22:37:28.868Z,23.16
2023-03-12T22:38:28.832Z,23.19
2023-03-12T22:39:28.801Z,23.19
2023-03-12T22:40:28.791Z,23.17
2023-03-12T22:41:28.761Z,23.16
2023-03-12T22:42:28.735Z,23.15
2023-03-12T22:43:28.706Z,23.15
2023-03-12T22:44:28.690Z,23.16
2023-03-12T22:45:28.660Z,23.18
2023-03-12T22:46:28.759Z,23.15
2023-03-12T22:47:28.629Z,23.14
2023-03-12T22:48:28.625Z,23.15
2023-03-12T22:49:28.579Z,23.14
2023-03-12T22:50:28.554Z,23.16
2023-03-12T22:51:28.568Z,23.17
2023-03-12T22:52:28.516Z,23.14
2023-03-12T22:53:28.495Z,23.15
2023-03-12T22:54:28.476Z,23.15
2023-03-12T22:55:28.448Z,23.16
2023-03-12T22:56:28.417Z,23.13
2023-03-12T22:57:28.404Z,23.15
2023-03-12T22:58:28.394Z,23.14
2023-03-12T22:59:28.341Z,23.14
2023-03-12T23:00:28.327Z,23.14
2023-03-12T23:01:28.375Z,23.13
2023-03-12T23:02:28.318Z,23.16
2023-03-12T23:03:28.240Z,23.15
2023-03-12T23:04:28.320Z,23.14
2023-03-12T23:05:28.210Z,23.14
2023-03-12T23:06:28.169Z,23.14
2023-03-12T23:07:28.155Z,23.13
2023-03-12T23:08:28.142Z,23.12
2023-03-12T23:09:28.108Z,23.12
2023-03-12T23:10:28.085Z,23.13
2023-03-12T23:11:28.054Z,23.11
2023-03-12T23:12:28.035Z,23.14
2023-03-12T23:13:28.004Z,23.13
2023-03-12T23:14:27.984Z,23.13
2023-03-12T23:15:38.787Z,23.12
2023-03-12T23:17:27.913Z,23.12
2023-03-12T23:18:27.887Z,23.14
2023-03-12T23:19:27.880Z,23.14
2023-03-12T23:20:27.841Z,23.14
2023-03-12T23:21:27.822Z,23.15
2023-03-12T23:22:27.793Z,23.11
2023-03-12T23:23:27.770Z,23.13
2023-03-12T23:24:27.743Z,23.10
2023-03-12T23:25:27.721Z,23.10
2023-03-12T23:26:27.696Z,23.11
2023-03-12T23:27:27.671Z,23.14
2023-03-12T23:28:27.669Z,23.12
2023-03-12T23:29:27.620Z,23.12
2023-03-12T23:30:27.590Z,23.10
2023-03-12T23:31:27.873Z,23.12
2023-03-12T23:32:27.614Z,23.11
2023-03-12T23:33:27.504Z,23.10
2023-03-12T23:34:27.490Z,23.09
2023-03-12T23:35:27.545Z,23.10
2023-03-12T23:36:27.452Z,23.09
2023-03-12T23:37:27.437Z,23.08
2023-03-12T23:38:27.386Z,23.09
2023-03-12T23:39:27.365Z,23.08
2023-03-12T23:40:27.330Z,23.10
2023-03-12T23:41:27.307Z,23.11
2023-03-12T23:42:27.276Z,23.10
2023-03-12T23:43:27.273Z,23.08
2023-03-12T23:44:27.266Z,23.08
2023-03-12T23:45:27.278Z,23.07
2023-03-12T23:46:27.202Z,23.08
2023-03-12T23:47:27.157Z,23.08
2023-03-12T23:48:27.139Z,23.09
2023-03-12T23:49:27.121Z,23.09
2023-03-12T23:50:27.098Z,23.07
2023-03-12T23:51:27.078Z,23.08
2023-03-12T23:52:27.129Z,23.07
2023-03-12T23:53:27.020Z,23.07
2023-03-12T23:54:26.980Z,23.08
2023-03-12T23:55:26.956Z,23.05
2023-03-12T23:56:26.928Z,23.05
2023-03-12T23:57:26.914Z,23.08
2023-03-12T23:58:26.894Z,23.07
2023-03-12T23:59:26.848Z,23.05
